sensor_id;sensor_type;location;lat;lon;timestamp;temperature;humidity
38265;DHT22;24062;47.480;8.768;2023-03-01T00:02:22;0.90;66.90
38265;DHT22;24062;47.480;8.768;2023-03-01T00:04:49;0.80;68.00
38265;DHT22;24062;47.480;8.768;2023-03-01T00:07:16;0.70;67.20
38265;DHT22;24062;47.480;8.768;2023-03-01T00:09:43;0.80;67.80
38265;DHT22;24062;47.480;8.768;2023-03-01T00:12:11;0.80;68.10
38265;DHT22;24062;47.480;8.768;2023-03-01T00:14:38;0.90;67.90
38265;DHT22;24062;47.480;8.768;2023-03-01T00:17:06;0.90;67.80
38265;DHT22;24062;47.480;8.768;2023-03-01T00:19:34;0.90;67.70
38265;DHT22;24062;47.480;8.768;2023-03-01T00:22:01;0.90;67.70
38265;DHT22;24062;47.480;8.768;2023-03-01T00:24:28;0.90;68.10
38265;DHT22;24062;47.480;8.768;2023-03-01T00:26:55;1.00;68.00
38265;DHT22;24062;47.480;8.768;2023-03-01T00:29:23;1.00;67.60
38265;DHT22;24062;47.480;8.768;2023-03-01T00:31:50;0.90;67.40
38265;DHT22;24062;47.480;8.768;2023-03-01T00:34:18;0.90;67.50
38265;DHT22;24062;47.480;8.768;2023-03-01T00:36:45;0.90;68.00
38265;DHT22;24062;47.480;8.768;2023-03-01T00:39:14;0.90;68.00
38265;DHT22;24062;47.480;8.768;2023-03-01T00:41:41;1.00;68.10
38265;DHT22;24062;47.480;8.768;2023-03-01T00:44:09;1.00;68.20
38265;DHT22;24062;47.480;8.768;2023-03-01T00:46:36;1.00;68.10
38265;DHT22;24062;47.480;8.768;2023-03-01T00:49:03;1.00;68.00
38265;DHT22;24062;47.480;8.768;2023-03-01T00:51:32;1.10;68.90
38265;DHT22;24062;47.480;8.768;2023-03-01T00:54:00;1.00;68.00
38265;DHT22;24062;47.480;8.768;2023-03-01T00:56:28;1.00;68.20
38265;DHT22;24062;47.480;8.768;2023-03-01T00:58:56;0.90;67.40
38265;DHT22;24062;47.480;8.768;2023-03-01T01:01:25;0.90;68.30
38265;DHT22;24062;47.480;8.768;2023-03-01T01:03:57;1.00;68.00
38265;DHT22;24062;47.480;8.768;2023-03-01T01:06:26;0.90;67.50
38265;DHT22;24062;47.480;8.768;2023-03-01T01:08:55;0.90;67.70
38265;DHT22;24062;47.480;8.768;2023-03-01T01:11:24;0.90;68.30
38265;DHT22;24062;47.480;8.768;2023-03-01T01:13:51;1.00;68.20
38265;DHT22;24062;47.480;8.768;2023-03-01T01:16:21;1.00;68.20
38265;DHT22;24062;47.480;8.768;2023-03-01T01:18:49;1.10;68.50
38265;DHT22;24062;47.480;8.768;2023-03-01T01:21:19;1.10;68.30
38265;DHT22;24062;47.480;8.768;2023-03-01T01:23:47;1.10;68.30
38265;DHT22;24062;47.480;8.768;2023-03-01T01:26:17;1.20;68.30
38265;DHT22;24062;47.480;8.768;2023-03-01T01:28:44;1.10;67.80
38265;DHT22;24062;47.480;8.768;2023-03-01T01:31:12;1.10;67.70
38265;DHT22;24062;47.480;8.768;2023-03-01T01:33:39;1.00;67.80
38265;DHT22;24062;47.480;8.768;2023-03-01T01:36:07;1.00;68.20
38265;DHT22;24062;47.480;8.768;2023-03-01T01:38:35;1.10;68.60
38265;DHT22;24062;47.480;8.768;2023-03-01T01:41:03;1.20;68.60
38265;DHT22;24062;47.480;8.768;2023-03-01T01:43:34;1.20;68.00
38265;DHT22;24062;47.480;8.768;2023-03-01T01:46:03;1.10;68.00
38265;DHT22;24062;47.480;8.768;2023-03-01T01:48:36;1.10;68.10
38265;DHT22;24062;47.480;8.768;2023-03-01T01:51:09;1.10;67.90
38265;DHT22;24062;47.480;8.768;2023-03-01T01:53:39;1.10;68.70
38265;DHT22;24062;47.480;8.768;2023-03-01T01:56:08;1.10;68.40
38265;DHT22;24062;47.480;8.768;2023-03-01T01:58:37;1.20;68.80
38265;DHT22;24062;47.480;8.768;2023-03-01T02:01:05;1.20;67.90
38265;DHT22;24062;47.480;8.768;2023-03-01T02:03:33;1.10;67.50
38265;DHT22;24062;47.480;8.768;2023-03-01T02:06:06;1.00;67.70
38265;DHT22;24062;47.480;8.768;2023-03-01T02:08:36;1.00;68.40
38265;DHT22;24062;47.480;8.768;2023-03-01T02:11:04;1.10;68.30
38265;DHT22;24062;47.480;8.768;2023-03-01T02:13:33;1.10;68.20
38265;DHT22;24062;47.480;8.768;2023-03-01T02:16:04;1.10;68.50
38265;DHT22;24062;47.480;8.768;2023-03-01T02:18:31;1.10;68.00
38265;DHT22;24062;47.480;8.768;2023-03-01T02:21:08;1.10;67.70
38265;DHT22;24062;47.480;8.768;2023-03-01T02:23:38;1.00;67.90
38265;DHT22;24062;47.480;8.768;2023-03-01T02:26:11;1.10;68.30
38265;DHT22;24062;47.480;8.768;2023-03-01T02:28:44;1.10;68.10
38265;DHT22;24062;47.480;8.768;2023-03-01T02:31:14;1.00;67.90
38265;DHT22;24062;47.480;8.768;2023-03-01T02:34:00;1.10;68.40
38265;DHT22;24062;47.480;8.768;2023-03-01T02:36:32;1.20;68.70
38265;DHT22;24062;47.480;8.768;2023-03-01T02:39:03;1.20;68.50
38265;DHT22;24062;47.480;8.768;2023-03-01T02:41:34;1.30;68.40
38265;DHT22;24062;47.480;8.768;2023-03-01T02:44:04;1.30;68.00
38265;DHT22;24062;47.480;8.768;2023-03-01T02:46:31;1.30;68.50
38265;DHT22;24062;47.480;8.768;2023-03-01T02:48:58;1.30;67.90
38265;DHT22;24062;47.480;8.768;2023-03-01T02:51:38;1.20;68.20
38265;DHT22;24062;47.480;8.768;2023-03-01T02:54:18;1.20;68.10
38265;DHT22;24062;47.480;8.768;2023-03-01T02:56:48;1.30;68.30
38265;DHT22;24062;47.480;8.768;2023-03-01T02:59:20;1.30;68.10
38265;DHT22;24062;47.480;8.768;2023-03-01T03:01:47;1.30;68.20
38265;DHT22;24062;47.480;8.768;2023-03-01T03:04:16;1.30;68.20
38265;DHT22;24062;47.480;8.768;2023-03-01T03:06:44;1.30;68.10
38265;DHT22;24062;47.480;8.768;2023-03-01T03:09:11;1.30;68.40
38265;DHT22;24062;47.480;8.768;2023-03-01T03:11:38;1.40;68.50
38265;DHT22;24062;47.480;8.768;2023-03-01T03:14:06;1.40;68.30
38265;DHT22;24062;47.480;8.768;2023-03-01T03:16:40;1.50;68.50
38265;DHT22;24062;47.480;8.768;2023-03-01T03:19:07;1.50;68.00
38265;DHT22;24062;47.480;8.768;2023-03-01T03:21:34;1.50;67.90
38265;DHT22;24062;47.480;8.768;2023-03-01T03:24:02;1.50;67.90
38265;DHT22;24062;47.480;8.768;2023-03-01T03:26:29;1.40;67.80
38265;DHT22;24062;47.480;8.768;2023-03-01T03:28:56;1.40;68.10
38265;DHT22;24062;47.480;8.768;2023-03-01T03:31:23;1.50;68.20
38265;DHT22;24062;47.480;8.768;2023-03-01T03:33:52;1.50;68.20
38265;DHT22;24062;47.480;8.768;2023-03-01T03:36:21;1.50;67.90
38265;DHT22;24062;47.480;8.768;2023-03-01T03:38:48;1.50;68.00
38265;DHT22;24062;47.480;8.768;2023-03-01T03:41:16;1.60;68.40
38265;DHT22;24062;47.480;8.768;2023-03-01T03:43:43;1.70;68.20
38265;DHT22;24062;47.480;8.768;2023-03-01T03:46:12;1.70;67.70
38265;DHT22;24062;47.480;8.768;2023-03-01T03:48:42;1.60;67.60
38265;DHT22;24062;47.480;8.768;2023-03-01T03:51:12;1.60;67.90
38265;DHT22;24062;47.480;8.768;2023-03-01T03:53:40;1.60;67.80
38265;DHT22;24062;47.480;8.768;2023-03-01T03:56:07;1.60;68.00
38265;DHT22;24062;47.480;8.768;2023-03-01T03:58:34;1.60;67.80
38265;DHT22;24062;47.480;8.768;2023-03-01T04:01:01;1.60;67.80
38265;DHT22;24062;47.480;8.768;2023-03-01T04:03:29;1.60;67.70
38265;DHT22;24062;47.480;8.768;2023-03-01T04:05:57;1.60;67.90
38265;DHT22;24062;47.480;8.768;2023-03-01T04:08:27;1.60;67.50
38265;DHT22;24062;47.480;8.768;2023-03-01T04:10:58;1.60;67.30
38265;DHT22;24062;47.480;8.768;2023-03-01T04:13:26;1.50;67.40
38265;DHT22;24062;47.480;8.768;2023-03-01T04:15:53;1.60;68.00
38265;DHT22;24062;47.480;8.768;2023-03-01T04:18:22;1.60;68.20
38265;DHT22;24062;47.480;8.768;2023-03-01T04:20:50;1.60;67.50
38265;DHT22;24062;47.480;8.768;2023-03-01T04:23:20;1.40;67.20
38265;DHT22;24062;47.480;8.768;2023-03-01T04:25:50;1.40;67.50
38265;DHT22;24062;47.480;8.768;2023-03-01T04:28:20;1.40;67.60
38265;DHT22;24062;47.480;8.768;2023-03-01T04:30:47;1.40;68.60
38265;DHT22;24062;47.480;8.768;2023-03-01T04:33:14;1.40;68.00
38265;DHT22;24062;47.480;8.768;2023-03-01T04:35:41;1.50;68.10
38265;DHT22;24062;47.480;8.768;2023-03-01T04:38:08;1.50;67.90
38265;DHT22;24062;47.480;8.768;2023-03-01T04:40:36;1.60;68.20
38265;DHT22;24062;47.480;8.768;2023-03-01T04:43:04;1.60;67.40
38265;DHT22;24062;47.480;8.768;2023-03-01T04:45:32;1.50;67.40
38265;DHT22;24062;47.480;8.768;2023-03-01T04:48:00;1.40;67.50
38265;DHT22;24062;47.480;8.768;2023-03-01T04:50:27;1.40;68.10
38265;DHT22;24062;47.480;8.768;2023-03-01T04:52:54;1.50;68.30
38265;DHT22;24062;47.480;8.768;2023-03-01T04:55:24;1.50;67.90
38265;DHT22;24062;47.480;8.768;2023-03-01T04:57:51;1.50;68.20
38265;DHT22;24062;47.480;8.768;2023-03-01T05:00:20;1.60;68.20
38265;DHT22;24062;47.480;8.768;2023-03-01T05:02:49;1.60;68.60
38265;DHT22;24062;47.480;8.768;2023-03-01T05:05:20;1.70;68.70
38265;DHT22;24062;47.480;8.768;2023-03-01T05:07:51;1.80;68.40
38265;DHT22;24062;47.480;8.768;2023-03-01T05:10:18;1.70;67.80
38265;DHT22;24062;47.480;8.768;2023-03-01T05:12:45;1.70;68.20
38265;DHT22;24062;47.480;8.768;2023-03-01T05:15:13;1.70;67.80
38265;DHT22;24062;47.480;8.768;2023-03-01T05:17:41;1.70;67.90
38265;DHT22;24062;47.480;8.768;2023-03-01T05:20:12;1.70;68.00
38265;DHT22;24062;47.480;8.768;2023-03-01T05:22:38;1.70;68.00
38265;DHT22;24062;47.480;8.768;2023-03-01T05:25:06;1.70;67.90
38265;DHT22;24062;47.480;8.768;2023-03-01T05:27:34;1.60;67.50
38265;DHT22;24062;47.480;8.768;2023-03-01T05:30:01;1.60;68.20
38265;DHT22;24062;47.480;8.768;2023-03-01T05:32:41;1.70;68.70
38265;DHT22;24062;47.480;8.768;2023-03-01T05:35:11;1.90;69.10
38265;DHT22;24062;47.480;8.768;2023-03-01T05:37:41;2.00;68.40
38265;DHT22;24062;47.480;8.768;2023-03-01T05:40:09;2.00;68.20
38265;DHT22;24062;47.480;8.768;2023-03-01T05:42:42;1.90;68.00
38265;DHT22;24062;47.480;8.768;2023-03-01T05:45:10;1.90;68.20
38265;DHT22;24062;47.480;8.768;2023-03-01T05:47:38;1.90;68.30
38265;DHT22;24062;47.480;8.768;2023-03-01T05:50:11;1.90;68.00
38265;DHT22;24062;47.480;8.768;2023-03-01T05:52:38;1.90;68.30
38265;DHT22;24062;47.480;8.768;2023-03-01T05:55:06;1.90;68.10
38265;DHT22;24062;47.480;8.768;2023-03-01T05:57:33;2.00;68.30
38265;DHT22;24062;47.480;8.768;2023-03-01T06:00:00;2.00;68.10
38265;DHT22;24062;47.480;8.768;2023-03-01T06:02:28;2.00;68.00
38265;DHT22;24062;47.480;8.768;2023-03-01T06:04:55;2.00;68.20
38265;DHT22;24062;47.480;8.768;2023-03-01T06:07:24;2.00;68.00
38265;DHT22;24062;47.480;8.768;2023-03-01T06:09:51;2.00;68.00
38265;DHT22;24062;47.480;8.768;2023-03-01T06:12:18;2.00;68.20
38265;DHT22;24062;47.480;8.768;2023-03-01T06:14:45;2.00;67.80
38265;DHT22;24062;47.480;8.768;2023-03-01T06:17:12;1.90;67.60
38265;DHT22;24062;47.480;8.768;2023-03-01T06:19:39;1.90;67.80
38265;DHT22;24062;47.480;8.768;2023-03-01T06:22:07;1.80;68.00
38265;DHT22;24062;47.480;8.768;2023-03-01T06:24:35;1.90;68.10
38265;DHT22;24062;47.480;8.768;2023-03-01T06:27:02;1.90;68.10
38265;DHT22;24062;47.480;8.768;2023-03-01T06:29:29;1.90;68.10
38265;DHT22;24062;47.480;8.768;2023-03-01T06:31:56;1.90;68.10
38265;DHT22;24062;47.480;8.768;2023-03-01T06:34:23;1.90;68.20
38265;DHT22;24062;47.480;8.768;2023-03-01T06:36:50;2.00;68.40
38265;DHT22;24062;47.480;8.768;2023-03-01T06:39:17;2.10;68.30
38265;DHT22;24062;47.480;8.768;2023-03-01T06:41:45;2.00;68.00
38265;DHT22;24062;47.480;8.768;2023-03-01T06:44:12;2.10;68.10
38265;DHT22;24062;47.480;8.768;2023-03-01T06:46:39;2.00;67.80
38265;DHT22;24062;47.480;8.768;2023-03-01T06:49:06;2.00;68.20
38265;DHT22;24062;47.480;8.768;2023-03-01T06:51:35;2.00;68.30
38265;DHT22;24062;47.480;8.768;2023-03-01T06:54:03;2.00;68.00
38265;DHT22;24062;47.480;8.768;2023-03-01T06:56:30;2.00;68.00
38265;DHT22;24062;47.480;8.768;2023-03-01T06:58:59;2.00;68.20
38265;DHT22;24062;47.480;8.768;2023-03-01T07:01:26;2.00;68.10
38265;DHT22;24062;47.480;8.768;2023-03-01T07:03:53;2.00;68.20
38265;DHT22;24062;47.480;8.768;2023-03-01T07:06:20;2.00;68.30
38265;DHT22;24062;47.480;8.768;2023-03-01T07:08:47;2.00;68.20
38265;DHT22;24062;47.480;8.768;2023-03-01T07:11:14;2.10;68.50
38265;DHT22;24062;47.480;8.768;2023-03-01T07:13:41;2.10;68.30
38265;DHT22;24062;47.480;8.768;2023-03-01T07:16:09;2.10;67.90
38265;DHT22;24062;47.480;8.768;2023-03-01T07:18:36;2.00;68.00
38265;DHT22;24062;47.480;8.768;2023-03-01T07:21:04;2.00;67.90
38265;DHT22;24062;47.480;8.768;2023-03-01T07:23:32;2.00;68.20
38265;DHT22;24062;47.480;8.768;2023-03-01T07:25:59;2.10;68.90
38265;DHT22;24062;47.480;8.768;2023-03-01T07:28:27;2.10;68.50
38265;DHT22;24062;47.480;8.768;2023-03-01T07:30:54;2.10;68.50
38265;DHT22;24062;47.480;8.768;2023-03-01T07:33:23;2.20;68.90
38265;DHT22;24062;47.480;8.768;2023-03-01T07:35:56;2.30;68.60
38265;DHT22;24062;47.480;8.768;2023-03-01T07:38:23;2.30;68.60
38265;DHT22;24062;47.480;8.768;2023-03-01T07:40:50;2.30;68.70
38265;DHT22;24062;47.480;8.768;2023-03-01T07:43:17;2.30;68.30
38265;DHT22;24062;47.480;8.768;2023-03-01T07:45:44;2.30;68.60
38265;DHT22;24062;47.480;8.768;2023-03-01T07:48:11;2.30;68.90
38265;DHT22;24062;47.480;8.768;2023-03-01T07:50:40;2.40;68.70
38265;DHT22;24062;47.480;8.768;2023-03-01T07:53:06;2.40;68.80
38265;DHT22;24062;47.480;8.768;2023-03-01T07:55:33;2.40;68.50
38265;DHT22;24062;47.480;8.768;2023-03-01T07:58:00;2.30;68.30
38265;DHT22;24062;47.480;8.768;2023-03-01T08:00:27;2.40;68.80
38265;DHT22;24062;47.480;8.768;2023-03-01T08:02:54;2.40;69.40
38265;DHT22;24062;47.480;8.768;2023-03-01T08:05:21;2.40;68.80
38265;DHT22;24062;47.480;8.768;2023-03-01T08:07:50;2.40;68.70
38265;DHT22;24062;47.480;8.768;2023-03-01T08:10:17;2.40;68.60
38265;DHT22;24062;47.480;8.768;2023-03-01T08:12:44;2.40;68.40
38265;DHT22;24062;47.480;8.768;2023-03-01T08:15:11;2.40;68.60
38265;DHT22;24062;47.480;8.768;2023-03-01T08:17:38;2.40;68.40
38265;DHT22;24062;47.480;8.768;2023-03-01T08:20:06;2.30;68.50
38265;DHT22;24062;47.480;8.768;2023-03-01T08:22:33;2.40;68.80
38265;DHT22;24062;47.480;8.768;2023-03-01T08:25:01;2.40;68.60
38265;DHT22;24062;47.480;8.768;2023-03-01T08:27:28;2.50;68.70
38265;DHT22;24062;47.480;8.768;2023-03-01T08:29:55;2.50;68.50
38265;DHT22;24062;47.480;8.768;2023-03-01T08:32:22;2.50;68.40
38265;DHT22;24062;47.480;8.768;2023-03-01T08:34:49;2.50;68.30
38265;DHT22;24062;47.480;8.768;2023-03-01T08:37:16;2.40;68.60
38265;DHT22;24062;47.480;8.768;2023-03-01T08:39:43;2.50;68.40
38265;DHT22;24062;47.480;8.768;2023-03-01T08:42:11;2.50;69.30
38265;DHT22;24062;47.480;8.768;2023-03-01T08:44:38;2.40;68.30
38265;DHT22;24062;47.480;8.768;2023-03-01T08:47:05;2.50;68.70
38265;DHT22;24062;47.480;8.768;2023-03-01T08:49:32;2.50;68.90
38265;DHT22;24062;47.480;8.768;2023-03-01T08:51:59;2.70;69.40
38265;DHT22;24062;47.480;8.768;2023-03-01T08:54:26;2.80;69.00
38265;DHT22;24062;47.480;8.768;2023-03-01T08:56:54;2.80;68.40
38265;DHT22;24062;47.480;8.768;2023-03-01T08:59:22;2.80;68.50
38265;DHT22;24062;47.480;8.768;2023-03-01T09:01:49;2.70;68.70
38265;DHT22;24062;47.480;8.768;2023-03-01T09:04:16;2.80;68.90
38265;DHT22;24062;47.480;8.768;2023-03-01T09:06:43;2.90;68.80
38265;DHT22;24062;47.480;8.768;2023-03-01T09:09:13;2.90;68.80
38265;DHT22;24062;47.480;8.768;2023-03-01T09:11:41;2.90;68.60
38265;DHT22;24062;47.480;8.768;2023-03-01T09:14:08;2.90;68.30
38265;DHT22;24062;47.480;8.768;2023-03-01T09:16:36;2.90;68.20
38265;DHT22;24062;47.480;8.768;2023-03-01T09:19:03;2.80;68.10
38265;DHT22;24062;47.480;8.768;2023-03-01T09:21:31;2.80;68.30
38265;DHT22;24062;47.480;8.768;2023-03-01T09:23:58;2.80;67.90
38265;DHT22;24062;47.480;8.768;2023-03-01T09:26:25;2.80;68.60
38265;DHT22;24062;47.480;8.768;2023-03-01T09:28:54;2.90;69.00
38265;DHT22;24062;47.480;8.768;2023-03-01T09:31:23;3.00;68.40
38265;DHT22;24062;47.480;8.768;2023-03-01T09:33:53;2.90;68.00
38265;DHT22;24062;47.480;8.768;2023-03-01T09:36:22;2.90;67.90
38265;DHT22;24062;47.480;8.768;2023-03-01T09:38:51;2.80;67.40
38265;DHT22;24062;47.480;8.768;2023-03-01T09:41:32;2.70;67.50
38265;DHT22;24062;47.480;8.768;2023-03-01T09:44:07;2.70;68.00
38265;DHT22;24062;47.480;8.768;2023-03-01T09:46:42;2.80;68.60
38265;DHT22;24062;47.480;8.768;2023-03-01T09:49:14;3.10;68.90
38265;DHT22;24062;47.480;8.768;2023-03-01T09:51:43;3.20;68.10
38265;DHT22;24062;47.480;8.768;2023-03-01T09:54:14;3.10;67.70
38265;DHT22;24062;47.480;8.768;2023-03-01T09:56:46;3.20;68.60
38265;DHT22;24062;47.480;8.768;2023-03-01T09:59:22;3.30;67.90
38265;DHT22;24062;47.480;8.768;2023-03-01T10:01:55;3.30;67.70
38265;DHT22;24062;47.480;8.768;2023-03-01T10:04:41;3.30;67.60
38265;DHT22;24062;47.480;8.768;2023-03-01T10:07:22;3.40;68.00
38265;DHT22;24062;47.480;8.768;2023-03-01T10:09:52;3.40;67.80
38265;DHT22;24062;47.480;8.768;2023-03-01T10:12:22;3.40;68.10
38265;DHT22;24062;47.480;8.768;2023-03-01T10:14:56;3.30;67.10
38265;DHT22;24062;47.480;8.768;2023-03-01T10:17:32;3.20;67.00
38265;DHT22;24062;47.480;8.768;2023-03-01T10:20:16;3.20;66.90
38265;DHT22;24062;47.480;8.768;2023-03-01T10:22:44;3.30;67.70
38265;DHT22;24062;47.480;8.768;2023-03-01T10:25:18;3.30;67.40
38265;DHT22;24062;47.480;8.768;2023-03-01T10:27:52;3.30;67.50
38265;DHT22;24062;47.480;8.768;2023-03-01T10:30:21;3.40;67.40
38265;DHT22;24062;47.480;8.768;2023-03-01T10:32:51;3.50;67.70
38265;DHT22;24062;47.480;8.768;2023-03-01T10:35:23;3.50;67.30
38265;DHT22;24062;47.480;8.768;2023-03-01T10:37:58;3.50;67.40
38265;DHT22;24062;47.480;8.768;2023-03-01T10:40:25;3.60;67.60
38265;DHT22;24062;47.480;8.768;2023-03-01T10:42:52;3.70;67.20
38265;DHT22;24062;47.480;8.768;2023-03-01T10:45:32;3.60;67.10
38265;DHT22;24062;47.480;8.768;2023-03-01T10:48:12;3.70;67.50
38265;DHT22;24062;47.480;8.768;2023-03-01T10:50:42;3.90;68.00
38265;DHT22;24062;47.480;8.768;2023-03-01T10:53:25;3.90;66.60
38265;DHT22;24062;47.480;8.768;2023-03-01T10:55:59;3.90;66.90
38265;DHT22;24062;47.480;8.768;2023-03-01T10:58:28;3.80;66.40
38265;DHT22;24062;47.480;8.768;2023-03-01T11:00:56;3.80;66.80
38265;DHT22;24062;47.480;8.768;2023-03-01T11:03:25;3.80;66.60
38265;DHT22;24062;47.480;8.768;2023-03-01T11:06:03;3.70;66.40
38265;DHT22;24062;47.480;8.768;2023-03-01T11:08:36;3.70;66.30
38265;DHT22;24062;47.480;8.768;2023-03-01T11:13:57;3.60;66.50
38265;DHT22;24062;47.480;8.768;2023-03-01T11:16:28;3.60;66.40
38265;DHT22;24062;47.480;8.768;2023-03-01T11:18:57;3.80;66.70
38265;DHT22;24062;47.480;8.768;2023-03-01T11:21:28;3.70;66.00
38265;DHT22;24062;47.480;8.768;2023-03-01T11:23:57;3.70;66.00
38265;DHT22;24062;47.480;8.768;2023-03-01T11:26:28;3.70;65.70
38265;DHT22;24062;47.480;8.768;2023-03-01T11:29:00;3.70;66.30
38265;DHT22;24062;47.480;8.768;2023-03-01T11:31:29;3.80;66.20
38265;DHT22;24062;47.480;8.768;2023-03-01T11:34:01;3.80;65.90
38265;DHT22;24062;47.480;8.768;2023-03-01T11:36:34;3.80;66.10
38265;DHT22;24062;47.480;8.768;2023-03-01T11:39:05;3.80;65.80
38265;DHT22;24062;47.480;8.768;2023-03-01T11:41:39;3.80;65.70
38265;DHT22;24062;47.480;8.768;2023-03-01T11:44:12;3.90;66.10
38265;DHT22;24062;47.480;8.768;2023-03-01T11:46:50;3.80;65.00
38265;DHT22;24062;47.480;8.768;2023-03-01T11:49:42;3.70;65.10
38265;DHT22;24062;47.480;8.768;2023-03-01T11:52:19;3.70;65.50
38265;DHT22;24062;47.480;8.768;2023-03-01T11:55:00;3.70;65.40
38265;DHT22;24062;47.480;8.768;2023-03-01T11:57:45;3.60;64.60
38265;DHT22;24062;47.480;8.768;2023-03-01T12:00:37;3.60;65.40
38265;DHT22;24062;47.480;8.768;2023-03-01T12:03:28;3.60;65.10
38265;DHT22;24062;47.480;8.768;2023-03-01T12:06:28;3.60;65.30
38265;DHT22;24062;47.480;8.768;2023-03-01T12:09:14;3.70;65.40
38265;DHT22;24062;47.480;8.768;2023-03-01T12:12:19;3.70;64.80
38265;DHT22;24062;47.480;8.768;2023-03-01T12:15:13;3.60;65.10
38265;DHT22;24062;47.480;8.768;2023-03-01T12:17:58;3.70;64.70
38265;DHT22;24062;47.480;8.768;2023-03-01T12:20:36;3.60;65.00
38265;DHT22;24062;47.480;8.768;2023-03-01T12:26:17;3.70;65.00
38265;DHT22;24062;47.480;8.768;2023-03-01T12:29:00;3.80;64.90
38265;DHT22;24062;47.480;8.768;2023-03-01T12:32:08;3.80;64.60
38265;DHT22;24062;47.480;8.768;2023-03-01T12:34:51;3.80;64.60
38265;DHT22;24062;47.480;8.768;2023-03-01T12:37:28;3.70;64.80
38265;DHT22;24062;47.480;8.768;2023-03-01T12:40:21;3.80;65.40
38265;DHT22;24062;47.480;8.768;2023-03-01T12:43:02;3.90;64.50
38265;DHT22;24062;47.480;8.768;2023-03-01T12:45:50;3.80;64.10
38265;DHT22;24062;47.480;8.768;2023-03-01T12:48:37;3.80;64.30
38265;DHT22;24062;47.480;8.768;2023-03-01T12:51:08;3.90;65.20
38265;DHT22;24062;47.480;8.768;2023-03-01T12:53:39;4.00;64.40
38265;DHT22;24062;47.480;8.768;2023-03-01T12:56:09;3.90;64.40
38265;DHT22;24062;47.480;8.768;2023-03-01T12:58:45;3.90;64.50
38265;DHT22;24062;47.480;8.768;2023-03-01T13:01:21;3.90;64.50
38265;DHT22;24062;47.480;8.768;2023-03-01T13:04:01;3.90;64.70
38265;DHT22;24062;47.480;8.768;2023-03-01T13:06:34;4.00;64.60
38265;DHT22;24062;47.480;8.768;2023-03-01T13:09:07;4.00;63.90
38265;DHT22;24062;47.480;8.768;2023-03-01T13:11:35;3.90;63.20
38265;DHT22;24062;47.480;8.768;2023-03-01T13:14:37;3.80;63.30
38265;DHT22;24062;47.480;8.768;2023-03-01T13:17:07;3.80;64.10
38265;DHT22;24062;47.480;8.768;2023-03-01T13:19:56;3.80;63.70
38265;DHT22;24062;47.480;8.768;2023-03-01T13:22:30;3.90;64.30
38265;DHT22;24062;47.480;8.768;2023-03-01T13:25:10;3.80;63.50
38265;DHT22;24062;47.480;8.768;2023-03-01T13:27:38;3.80;63.70
38265;DHT22;24062;47.480;8.768;2023-03-01T13:30:40;3.80;63.70
38265;DHT22;24062;47.480;8.768;2023-03-01T13:33:41;3.80;63.70
38265;DHT22;24062;47.480;8.768;2023-03-01T13:36:10;3.80;63.40
38265;DHT22;24062;47.480;8.768;2023-03-01T13:38:46;3.80;63.30
38265;DHT22;24062;47.480;8.768;2023-03-01T13:41:14;3.80;63.50
38265;DHT22;24062;47.480;8.768;2023-03-01T13:43:43;3.80;63.60
38265;DHT22;24062;47.480;8.768;2023-03-01T13:46:16;3.90;63.50
38265;DHT22;24062;47.480;8.768;2023-03-01T13:48:47;3.90;63.30
38265;DHT22;24062;47.480;8.768;2023-03-01T13:51:21;3.90;63.30
38265;DHT22;24062;47.480;8.768;2023-03-01T13:53:49;3.90;63.50
38265;DHT22;24062;47.480;8.768;2023-03-01T13:56:19;3.90;62.90
38265;DHT22;24062;47.480;8.768;2023-03-01T13:58:49;3.90;63.20
38265;DHT22;24062;47.480;8.768;2023-03-01T14:01:26;3.90;63.10
38265;DHT22;24062;47.480;8.768;2023-03-01T14:03:53;3.80;62.80
38265;DHT22;24062;47.480;8.768;2023-03-01T14:06:22;3.90;63.70
38265;DHT22;24062;47.480;8.768;2023-03-01T14:08:52;4.00;63.90
38265;DHT22;24062;47.480;8.768;2023-03-01T14:12:06;4.10;63.00
38265;DHT22;24062;47.480;8.768;2023-03-01T14:14:44;4.00;62.40
38265;DHT22;24062;47.480;8.768;2023-03-01T14:20:17;3.90;63.10
38265;DHT22;24062;47.480;8.768;2023-03-01T14:22:46;4.00;63.10
38265;DHT22;24062;47.480;8.768;2023-03-01T14:25:21;3.90;62.50
38265;DHT22;24062;47.480;8.768;2023-03-01T14:27:55;3.90;62.90
38265;DHT22;24062;47.480;8.768;2023-03-01T14:30:24;3.90;62.40
38265;DHT22;24062;47.480;8.768;2023-03-01T14:32:54;3.70;62.30
38265;DHT22;24062;47.480;8.768;2023-03-01T14:35:25;3.80;62.50
38265;DHT22;24062;47.480;8.768;2023-03-01T14:37:53;3.70;62.10
38265;DHT22;24062;47.480;8.768;2023-03-01T14:40:24;3.70;62.00
38265;DHT22;24062;47.480;8.768;2023-03-01T14:42:51;3.70;62.50
38265;DHT22;24062;47.480;8.768;2023-03-01T14:45:19;3.70;63.00
38265;DHT22;24062;47.480;8.768;2023-03-01T14:47:47;3.80;62.40
38265;DHT22;24062;47.480;8.768;2023-03-01T14:50:27;3.70;62.40
38265;DHT22;24062;47.480;8.768;2023-03-01T14:52:56;3.80;62.50
38265;DHT22;24062;47.480;8.768;2023-03-01T14:55:29;3.70;62.20
38265;DHT22;24062;47.480;8.768;2023-03-01T14:57:57;3.80;62.40
38265;DHT22;24062;47.480;8.768;2023-03-01T15:00:26;3.90;62.80
38265;DHT22;24062;47.480;8.768;2023-03-01T15:02:55;3.90;62.20
38265;DHT22;24062;47.480;8.768;2023-03-01T15:05:28;3.80;62.00
38265;DHT22;24062;47.480;8.768;2023-03-01T15:07:58;3.80;61.60
38265;DHT22;24062;47.480;8.768;2023-03-01T15:10:27;3.80;61.90
38265;DHT22;24062;47.480;8.768;2023-03-01T15:12:55;3.70;62.20
38265;DHT22;24062;47.480;8.768;2023-03-01T15:15:34;3.70;62.20
38265;DHT22;24062;47.480;8.768;2023-03-01T15:18:04;3.80;62.50
38265;DHT22;24062;47.480;8.768;2023-03-01T15:20:33;3.80;62.10
38265;DHT22;24062;47.480;8.768;2023-03-01T15:23:03;3.80;61.60
38265;DHT22;24062;47.480;8.768;2023-03-01T15:25:31;3.80;62.60
38265;DHT22;24062;47.480;8.768;2023-03-01T15:28:00;3.80;62.60
38265;DHT22;24062;47.480;8.768;2023-03-01T15:30:30;3.90;62.80
38265;DHT22;24062;47.480;8.768;2023-03-01T15:33:20;4.00;61.80
38265;DHT22;24062;47.480;8.768;2023-03-01T15:35:56;3.80;61.20
38265;DHT22;24062;47.480;8.768;2023-03-01T15:38:29;3.70;61.10
38265;DHT22;24062;47.480;8.768;2023-03-01T15:40:58;3.60;61.30
38265;DHT22;24062;47.480;8.768;2023-03-01T15:43:44;3.60;61.70
38265;DHT22;24062;47.480;8.768;2023-03-01T15:46:23;3.60;61.60
38265;DHT22;24062;47.480;8.768;2023-03-01T15:48:52;3.50;61.20
38265;DHT22;24062;47.480;8.768;2023-03-01T15:51:29;3.50;61.70
38265;DHT22;24062;47.480;8.768;2023-03-01T15:53:59;3.60;62.10
38265;DHT22;24062;47.480;8.768;2023-03-01T15:56:27;3.60;61.30
38265;DHT22;24062;47.480;8.768;2023-03-01T15:58:58;3.50;61.20
38265;DHT22;24062;47.480;8.768;2023-03-01T16:01:26;3.50;61.70
38265;DHT22;24062;47.480;8.768;2023-03-01T16:03:53;3.50;61.70
38265;DHT22;24062;47.480;8.768;2023-03-01T16:06:20;3.50;61.70
38265;DHT22;24062;47.480;8.768;2023-03-01T16:08:48;3.60;61.80
38265;DHT22;24062;47.480;8.768;2023-03-01T16:11:17;3.60;61.80
38265;DHT22;24062;47.480;8.768;2023-03-01T16:13:45;3.50;61.20
38265;DHT22;24062;47.480;8.768;2023-03-01T16:16:13;3.40;61.20
38265;DHT22;24062;47.480;8.768;2023-03-01T16:18:42;3.30;61.40